Time;durP1;ratioP1;P1;durP2;ratioP2;P2;SDS_P1;SDS_P2;PMS_P1;PMS_P2;Temp;Humidity;BMP_temperature;BMP_pressure;BME280_temperature;BME280_humidity;BME280_pressure;Samples;Min_cycle;Max_cycle;Signal;HPM_P1;HPM_P2
2022/03/15 00:01:21;;;;;;;24.30;19.10;;;7.50;99.90;;;;;;4936364;29;20270;-59
2022/03/15 00:03:51;;;;;;;24.67;19.70;;;7.50;99.90;;;;;;4936045;29;20355;-59
2022/03/15 00:06:21;;;;;;;23.50;18.40;;;7.50;99.90;;;;;;4929951;29;20232;-59
2022/03/15 00:08:49;;;;;;;21.83;16.60;;;7.40;99.90;;;;;;4928141;29;20247;-59
2022/03/15 00:11:19;;;;;;;25.63;19.07;;;7.50;99.90;;;;;;4935794;29;20258;-59
2022/03/15 00:13:47;;;;;;;21.37;17.37;;;7.50;99.90;;;;;;4935487;29;20232;-59
2022/03/15 00:16:16;;;;;;;22.53;17.80;;;7.60;99.90;;;;;;4935682;29;20319;-59
2022/03/15 00:18:46;;;;;;;20.10;15.97;;;7.60;99.90;;;;;;4935618;29;20235;-59
2022/03/15 00:21:18;;;;;;;22.73;16.80;;;7.50;99.90;;;;;;4935120;29;20235;-59
2022/03/15 00:23:46;;;;;;;20.60;15.70;;;7.40;99.90;;;;;;4918009;29;20301;-59
2022/03/15 00:26:14;;;;;;;21.90;16.33;;;7.30;99.90;;;;;;4916473;29;20240;-59
2022/03/15 00:28:43;;;;;;;22.80;16.30;;;7.20;99.90;;;;;;4927378;29;20242;-59
2022/03/15 00:31:13;;;;;;;20.27;15.60;;;7.30;99.90;;;;;;4935728;29;20240;-59
2022/03/15 00:33:42;;;;;;;18.27;14.73;;;7.20;99.90;;;;;;4935493;29;20351;-59
2022/03/15 00:36:11;;;;;;;20.53;16.23;;;7.20;99.90;;;;;;4936018;29;20302;-59
2022/03/15 00:38:41;;;;;;;21.10;16.77;;;7.20;99.90;;;;;;4925195;29;20236;-59
2022/03/15 00:41:10;;;;;;;21.20;16.50;;;7.20;99.90;;;;;;4916439;29;20247;-59
2022/03/15 00:43:43;;;;;;;21.00;15.67;;;7.20;99.90;;;;;;4898903;29;20233;-59
2022/03/15 00:46:11;;;;;;;21.13;16.13;;;7.10;99.90;;;;;;4916669;29;20287;-59
2022/03/15 00:48:40;;;;;;;19.00;14.50;;;7.10;99.90;;;;;;4926886;29;20577;-59
2022/03/15 00:51:08;;;;;;;19.87;16.10;;;7.20;99.90;;;;;;4934542;29;20236;-59
2022/03/15 00:53:37;;;;;;;20.97;17.10;;;7.30;99.90;;;;;;4899468;29;20697;-59
2022/03/15 00:56:07;;;;;;;18.33;14.67;;;7.20;99.90;;;;;;4916127;29;20243;-59
2022/03/15 00:58:35;;;;;;;18.10;14.50;;;7.20;99.90;;;;;;4926030;29;20692;-59
2022/03/15 01:01:09;;;;;;;20.60;16.13;;;7.10;99.90;;;;;;4918419;29;20240;-59
2022/03/15 01:03:38;;;;;;;19.00;15.73;;;7.10;99.90;;;;;;4935156;29;20591;-59
2022/03/15 01:06:06;;;;;;;19.00;14.37;;;7.10;99.90;;;;;;4930576;29;21421;-59
2022/03/15 01:08:35;;;;;;;20.73;16.50;;;7.00;99.90;;;;;;4918213;29;20589;-59
2022/03/15 01:11:05;;;;;;;20.33;16.60;;;7.10;99.90;;;;;;4927441;29;20252;-59
2022/03/15 01:13:35;;;;;;;20.87;16.30;;;7.20;99.90;;;;;;4887594;29;20306;-59
2022/03/15 01:16:04;;;;;;;19.60;16.27;;;7.10;99.90;;;;;;4878655;29;20766;-59
2022/03/15 01:18:34;;;;;;;17.53;14.60;;;7.00;99.90;;;;;;4887202;29;20233;-59
2022/03/15 01:21:02;;;;;;;21.37;14.67;;;7.00;99.90;;;;;;4897487;29;20594;-59
2022/03/15 01:23:32;;;;;;;22.10;17.50;;;7.10;99.90;;;;;;4889597;29;20285;-59
2022/03/15 01:26:03;;;;;;;18.50;15.33;;;7.10;99.90;;;;;;4908384;29;20237;-59
2022/03/15 01:28:31;;;;;;;21.20;18.00;;;7.20;99.90;;;;;;4876935;29;20234;-59
2022/03/15 01:31:00;;;;;;;19.80;16.03;;;7.20;99.90;;;;;;4878396;29;20238;-59
2022/03/15 01:33:29;;;;;;;21.17;16.90;;;7.10;99.90;;;;;;4877468;29;20257;-59
2022/03/15 01:35:57;;;;;;;18.77;15.87;;;7.00;99.90;;;;;;4878329;29;20726;-59
2022/03/15 01:38:28;;;;;;;19.23;15.70;;;6.90;99.90;;;;;;4886891;29;20247;-59
2022/03/15 01:40:56;;;;;;;20.23;17.10;;;6.90;99.90;;;;;;4895570;29;20304;-59
2022/03/15 01:43:24;;;;;;;19.83;16.73;;;6.90;99.90;;;;;;4896843;29;20729;-59
2022/03/15 01:45:53;;;;;;;26.67;16.77;;;6.80;99.90;;;;;;4894006;29;20269;-59
2022/03/15 01:48:23;;;;;;;19.07;16.27;;;6.80;99.90;;;;;;4886126;29;20248;-59
2022/03/15 01:50:51;;;;;;;19.80;17.50;;;6.70;99.90;;;;;;4886876;29;20240;-59
2022/03/15 01:53:20;;;;;;;20.17;15.33;;;6.70;99.90;;;;;;4885346;29;20241;-59
2022/03/15 01:55:49;;;;;;;18.77;16.10;;;6.70;99.90;;;;;;4896840;29;20317;-59
2022/03/15 01:58:17;;;;;;;18.87;15.47;;;6.70;99.90;;;;;;4919237;29;20242;-59
2022/03/15 02:00:45;;;;;;;17.40;14.67;;;6.70;99.90;;;;;;4907690;29;20238;-59
2022/03/15 02:03:14;;;;;;;18.53;15.67;;;6.60;99.90;;;;;;4883528;29;20241;-59
2022/03/15 02:05:43;;;;;;;16.37;14.13;;;6.50;99.90;;;;;;4895387;29;20721;-59
2022/03/15 02:08:13;;;;;;;16.00;12.93;;;6.60;99.90;;;;;;4884810;29;20240;-59
2022/03/15 02:10:42;;;;;;;21.97;15.80;;;6.60;99.90;;;;;;4915415;29;20241;-59
2022/03/15 02:13:11;;;;;;;16.90;14.63;;;6.60;99.90;;;;;;4921325;29;20228;-59
2022/03/15 02:15:40;;;;;;;16.27;13.93;;;6.40;99.90;;;;;;4934052;29;20239;-59
2022/03/15 02:18:08;;;;;;;15.67;13.87;;;6.40;99.90;;;;;;4933860;29;20687;-59
2022/03/15 02:20:37;;;;;;;14.60;12.93;;;6.40;99.90;;;;;;4926086;29;20234;-59
2022/03/15 02:23:05;;;;;;;16.53;13.80;;;6.50;99.90;;;;;;4921783;29;20310;-57
2022/03/15 02:25:34;;;;;;;16.33;14.27;;;6.50;99.90;;;;;;4917645;29;20686;-59
2022/03/15 02:28:02;;;;;;;15.20;13.60;;;6.50;99.90;;;;;;4920091;29;20614;-59
2022/03/15 02:30:31;;;;;;;14.70;13.10;;;6.40;99.90;;;;;;4933664;29;20577;-59
2022/03/15 02:33:00;;;;;;;14.03;12.57;;;6.30;99.90;;;;;;4928438;29;20666;-59
2022/03/15 02:35:28;;;;;;;14.00;11.80;;;6.20;99.90;;;;;;4914620;29;20240;-59
2022/03/15 02:37:58;;;;;;;15.73;13.30;;;6.20;99.90;;;;;;4919256;29;20235;-59
2022/03/15 02:40:26;;;;;;;14.17;12.07;;;6.20;99.90;;;;;;4932008;29;20236;-59
2022/03/15 02:42:55;;;;;;;14.40;12.77;;;6.20;99.90;;;;;;4918802;29;20238;-59
2022/03/15 02:45:26;;;;;;;17.13;15.27;;;6.20;99.90;;;;;;4921882;29;20284;-59
2022/03/15 02:47:56;;;;;;;15.40;13.37;;;6.10;99.90;;;;;;4925280;29;20279;-59
2022/03/15 02:50:25;;;;;;;13.33;11.93;;;6.00;99.90;;;;;;4939770;29;20250;-59
2022/03/15 02:52:53;;;;;;;12.50;11.20;;;6.00;99.90;;;;;;4939589;29;20246;-59
2022/03/15 02:55:24;;;;;;;16.10;14.33;;;6.00;99.90;;;;;;4939796;29;20239;-59
2022/03/15 02:57:54;;;;;;;14.77;13.27;;;6.00;99.90;;;;;;4939681;29;20264;-59
2022/03/15 03:00:23;;;;;;;16.07;13.43;;;6.00;99.90;;;;;;4939814;29;20239;-59
2022/03/15 03:02:51;;;;;;;17.50;13.87;;;5.90;99.90;;;;;;4934856;29;20236;-59
2022/03/15 03:05:20;;;;;;;15.53;12.13;;;5.80;99.90;;;;;;4920702;29;20240;-59
2022/03/15 03:07:48;;;;;;;17.10;15.07;;;5.80;99.90;;;;;;4923959;29;20342;-59
2022/03/15 03:10:17;;;;;;;18.20;14.80;;;5.80;99.90;;;;;;4934508;29;20276;-59
2022/03/15 03:12:49;;;;;;;17.03;14.20;;;5.80;99.90;;;;;;4923286;29;20334;-59
2022/03/15 03:15:18;;;;;;;16.43;13.80;;;5.80;99.90;;;;;;4923219;29;20481;-59
2022/03/15 03:17:46;;;;;;;17.17;14.60;;;5.70;99.90;;;;;;4923557;29;20231;-59
2022/03/15 03:20:19;;;;;;;15.63;12.23;;;5.70;99.90;;;;;;4939614;29;20647;-59
2022/03/15 03:22:49;;;;;;;17.17;14.73;;;5.80;99.90;;;;;;4932001;29;20287;-59
2022/03/15 03:25:18;;;;;;;13.83;12.20;;;5.70;99.90;;;;;;4939600;29;20242;-59
2022/03/15 03:27:48;;;;;;;16.30;14.53;;;5.70;99.90;;;;;;4922067;29;20647;-59
2022/03/15 03:30:17;;;;;;;15.97;14.27;;;5.60;99.90;;;;;;4920568;29;20240;-59
2022/03/15 03:32:46;;;;;;;17.40;13.80;;;5.60;99.90;;;;;;4920380;29;20319;-58
2022/03/15 03:35:14;;;;;;;16.87;13.13;;;5.60;99.90;;;;;;4920664;29;20236;-59
2022/03/15 03:37:42;;;;;;;17.33;14.67;;;5.60;99.90;;;;;;4920298;29;20319;-59
2022/03/15 03:40:10;;;;;;;15.73;13.03;;;5.70;99.90;;;;;;4920806;29;20295;-59
2022/03/15 03:42:38;;;;;;;15.57;13.77;;;5.50;99.90;;;;;;4922408;29;20251;-61
2022/03/15 03:45:09;;;;;;;14.17;12.03;;;5.50;99.90;;;;;;4924362;29;20642;-61
2022/03/15 03:47:37;;;;;;;16.93;14.73;;;5.40;99.90;;;;;;4922675;29;20266;-61
2022/03/15 03:50:08;;;;;;;16.67;14.03;;;5.30;99.90;;;;;;4925606;29;20252;-61
2022/03/15 03:52:36;;;;;;;16.13;13.87;;;5.30;99.90;;;;;;4920047;29;20240;-61
2022/03/15 03:55:05;;;;;;;12.73;11.10;;;5.20;99.90;;;;;;4919259;29;20676;-61
2022/03/15 03:57:34;;;;;;;16.50;14.03;;;5.40;99.90;;;;;;4916617;29;20236;-61
2022/03/15 04:00:02;;;;;;;14.60;12.53;;;5.50;99.90;;;;;;4917068;29;20263;-61
2022/03/15 04:02:41;;;;;;;14.13;12.50;;;5.40;99.90;;;;;;4917392;29;20303;-61
2022/03/15 04:05:10;;;;;;;11.93;10.67;;;5.20;99.90;;;;;;4917577;29;20237;-61
2022/03/15 04:07:40;;;;;;;12.07;10.77;;;5.30;99.90;;;;;;4916812;29;20623;-61
2022/03/15 04:10:09;;;;;;;11.90;10.70;;;5.30;99.90;;;;;;4899949;29;20288;-61
2022/03/15 04:12:38;;;;;;;14.33;11.73;;;5.40;99.90;;;;;;4919415;29;20239;-61
2022/03/15 04:15:07;;;;;;;12.57;11.20;;;5.50;99.90;;;;;;4936019;29;20301;-61
2022/03/15 04:17:36;;;;;;;14.93;12.83;;;5.50;99.90;;;;;;4933818;29;20718;-61
2022/03/15 04:20:06;;;;;;;15.43;12.33;;;5.30;99.90;;;;;;4916853;29;20243;-61
2022/03/15 04:22:34;;;;;;;14.00;12.50;;;5.10;99.90;;;;;;4918634;29;20252;-61
2022/03/15 04:25:03;;;;;;;14.20;12.13;;;4.90;99.90;;;;;;4935935;29;20770;-61
2022/03/15 04:27:31;;;;;;;11.20;10.00;;;4.70;99.90;;;;;;4921670;29;20241;-61
2022/03/15 04:29:59;;;;;;;14.33;12.43;;;4.80;99.90;;;;;;4935622;29;20247;-61
2022/03/15 04:32:27;;;;;;;12.13;10.50;;;4.80;99.90;;;;;;4935649;29;20235;-61
2022/03/15 04:34:56;;;;;;;14.47;11.77;;;4.90;99.90;;;;;;4935799;29;20271;-61
2022/03/15 04:37:25;;;;;;;10.70;9.60;;;4.60;99.90;;;;;;4928671;29;20240;-61
2022/03/15 04:39:56;;;;;;;10.37;9.33;;;4.60;99.90;;;;;;4916038;29;20715;-61
2022/03/15 04:42:24;;;;;;;12.13;10.57;;;4.80;99.90;;;;;;4916823;29;20325;-61
2022/03/15 04:44:53;;;;;;;10.83;9.73;;;4.80;99.90;;;;;;4935412;29;20479;-61
2022/03/15 04:47:21;;;;;;;10.13;9.13;;;5.00;99.90;;;;;;4921321;29;20243;-61
2022/03/15 04:49:49;;;;;;;11.13;10.03;;;5.00;99.90;;;;;;4935244;29;20704;-61
2022/03/15 04:52:18;;;;;;;9.53;8.37;;;5.00;99.90;;;;;;4935171;29;20242;-62
2022/03/15 04:54:47;;;;;;;11.53;10.50;;;4.90;99.90;;;;;;4935262;29;20340;-61
2022/03/15 04:57:15;;;;;;;9.73;8.73;;;5.00;99.90;;;;;;4935343;29;20238;-61
2022/03/15 04:59:44;;;;;;;12.50;11.20;;;5.00;99.90;;;;;;4916434;29;20652;-61
2022/03/15 05:02:12;;;;;;;9.80;8.77;;;4.90;99.90;;;;;;4916687;29;20254;-61
2022/03/15 05:04:40;;;;;;;10.67;9.17;;;4.70;99.90;;;;;;4916276;29;20258;-61
2022/03/15 05:07:08;;;;;;;10.67;9.57;;;4.70;99.90;;;;;;4915852;29;20265;-60
2022/03/15 05:11:05;;;;;;;10.07;9.07;;;4.50;99.90;;;;;;4922118;29;20288;-61
2022/03/15 05:12:26;;;;;;;10.60;9.40;;;4.60;99.90;;;;;;4916333;29;20241;-61
2022/03/15 05:14:54;;;;;;;9.00;8.10;;;4.60;99.90;;;;;;4934786;29;20236;-62
2022/03/15 05:17:23;;;;;;;10.47;8.60;;;4.90;99.90;;;;;;4934819;29;20749;-61
2022/03/15 05:19:51;;;;;;;10.73;9.73;;;5.00;99.90;;;;;;4934759;29;20236;-61
2022/03/15 05:22:22;;;;;;;10.07;9.07;;;4.80;99.90;;;;;;4927085;29;20299;-61
2022/03/15 05:24:50;;;;;;;9.83;8.83;;;4.70;99.90;;;;;;4934760;29;20239;-61
2022/03/15 05:27:18;;;;;;;9.33;8.43;;;4.70;99.90;;;;;;4920832;29;20600;-61
2022/03/15 05:29:48;;;;;;;11.27;10.17;;;4.60;99.90;;;;;;4896643;29;20655;-61
2022/03/15 05:32:16;;;;;;;10.53;9.53;;;4.60;99.90;;;;;;4896850;29;20997;-61
2022/03/15 05:34:44;;;;;;;10.40;9.37;;;4.30;99.90;;;;;;4934042;29;20275;-61
2022/03/15 05:37:12;;;;;;;10.03;9.03;;;4.10;99.90;;;;;;4929678;29;20228;-60
2022/03/15 05:39:40;;;;;;;13.77;9.87;;;4.20;99.90;;;;;;4914666;29;20267;-61
2022/03/15 05:42:11;;;;;;;14.70;10.17;;;4.30;99.90;;;;;;4914811;29;20231;-61
2022/03/15 05:44:45;;;;;;;14.83;12.13;;;4.50;99.90;;;;;;4914337;29;20763;-61
2022/03/15 05:47:15;;;;;;;14.00;10.83;;;4.40;99.90;;;;;;4914541;29;20480;-61
2022/03/15 05:49:43;;;;;;;13.50;11.53;;;4.60;99.90;;;;;;4920426;29;20507;-61
2022/03/15 05:52:11;;;;;;;17.10;13.63;;;4.80;99.90;;;;;;4922416;29;20239;-61
2022/03/15 05:54:40;;;;;;;17.10;13.83;;;4.90;99.90;;;;;;4923553;29;20234;-61
2022/03/15 05:57:08;;;;;;;19.83;13.67;;;4.80;99.90;;;;;;4916681;29;20243;-61
2022/03/15 05:59:36;;;;;;;17.00;15.23;;;4.90;99.90;;;;;;4922625;29;20311;-61
2022/03/15 06:02:04;;;;;;;15.53;12.97;;;4.90;99.90;;;;;;4929539;29;20583;-61
2022/03/15 06:04:34;;;;;;;15.80;14.10;;;4.70;99.90;;;;;;4930705;29;20239;-61
2022/03/15 06:07:03;;;;;;;13.57;12.17;;;4.50;99.90;;;;;;4918076;29;20244;-61
2022/03/15 06:09:34;;;;;;;12.17;10.87;;;4.30;99.90;;;;;;4914361;29;20244;-61
2022/03/15 06:12:03;;;;;;;11.97;10.67;;;4.20;99.90;;;;;;4929166;29;20244;-61
2022/03/15 06:14:31;;;;;;;12.23;10.37;;;4.10;99.90;;;;;;4924232;29;20239;-61
2022/03/15 06:17:00;;;;;;;12.63;10.80;;;4.10;99.90;;;;;;4920805;29;20658;-62
2022/03/15 06:19:28;;;;;;;11.87;10.43;;;4.00;99.90;;;;;;4925896;29;20655;-61
2022/03/15 06:21:58;;;;;;;14.97;10.43;;;4.00;99.90;;;;;;4919660;29;20264;-61
2022/03/15 06:24:26;;;;;;;12.03;10.10;;;4.00;99.90;;;;;;4920117;29;20269;-61
2022/03/15 06:26:55;;;;;;;12.70;10.47;;;4.00;99.90;;;;;;4914183;29;20712;-61
2022/03/15 06:29:23;;;;;;;12.60;10.93;;;4.00;99.90;;;;;;4913980;29;20239;-61
2022/03/15 06:31:52;;;;;;;11.70;10.47;;;4.10;99.90;;;;;;4914512;29;20237;-62
2022/03/15 06:34:40;;;;;;;10.50;9.40;;;4.10;99.90;;;;;;4922406;29;20685;-62
2022/03/15 06:37:09;;;;;;;13.53;11.47;;;4.20;99.90;;;;;;4929823;29;20231;-61
2022/03/15 06:39:37;;;;;;;13.10;11.03;;;4.20;99.90;;;;;;4917238;29;20232;-61
2022/03/15 06:42:09;;;;;;;12.90;11.30;;;4.20;99.90;;;;;;4913232;29;20243;-61
2022/03/15 06:44:37;;;;;;;13.57;12.17;;;4.20;99.90;;;;;;4923471;29;20236;-61
2022/03/15 06:47:06;;;;;;;14.43;11.93;;;4.20;99.90;;;;;;4924867;29;20232;-61
2022/03/15 06:49:34;;;;;;;14.57;12.63;;;4.20;99.90;;;;;;4927156;29;20706;-61
2022/03/15 06:52:03;;;;;;;14.60;12.60;;;4.30;99.90;;;;;;4928307;29;20474;-61
2022/03/15 06:54:32;;;;;;;14.73;11.83;;;4.30;99.90;;;;;;4920063;29;20518;-61
2022/03/15 06:57:00;;;;;;;14.20;11.43;;;4.30;99.90;;;;;;4922787;29;20243;-61
2022/03/15 06:59:28;;;;;;;14.13;11.87;;;4.40;99.90;;;;;;4922917;29;20239;-61
2022/03/15 07:02:00;;;;;;;17.60;13.23;;;4.40;99.90;;;;;;4913807;29;20716;-61
2022/03/15 07:04:29;;;;;;;14.60;12.07;;;4.60;99.90;;;;;;4921677;29;20320;-61
2022/03/15 07:06:57;;;;;;;14.23;11.33;;;4.50;99.90;;;;;;4917917;29;20741;-61
2022/03/15 07:09:25;;;;;;;12.73;11.00;;;4.60;99.90;;;;;;4929336;29;20239;-61
2022/03/15 07:11:55;;;;;;;12.70;11.07;;;4.60;99.90;;;;;;4922885;29;20266;-61
2022/03/15 07:14:23;;;;;;;13.83;10.70;;;4.70;99.90;;;;;;4923615;29;20287;-60
2022/03/15 07:16:51;;;;;;;12.93;11.50;;;4.70;99.90;;;;;;4913761;29;20240;-61
2022/03/15 07:19:20;;;;;;;12.63;11.07;;;4.80;99.90;;;;;;4924353;29;20235;-61
2022/03/15 07:21:48;;;;;;;11.33;10.03;;;4.80;99.90;;;;;;4913471;29;20246;-61
2022/03/15 07:24:16;;;;;;;12.53;11.20;;;4.90;99.90;;;;;;4921471;29;20567;-61
2022/03/15 07:26:44;;;;;;;11.57;10.27;;;5.00;99.90;;;;;;4917118;29;20232;-61
2022/03/15 07:29:14;;;;;;;14.87;10.83;;;5.10;99.90;;;;;;4923317;29;20316;-61
2022/03/15 07:31:42;;;;;;;13.40;11.03;;;5.10;99.90;;;;;;4923407;29;20228;-61
2022/03/15 07:34:10;;;;;;;13.77;10.07;;;5.10;99.90;;;;;;4925574;29;20752;-61
2022/03/15 07:36:38;;;;;;;12.30;10.60;;;5.10;99.90;;;;;;4925634;29;20246;-61
2022/03/15 07:39:07;;;;;;;13.23;11.03;;;5.20;99.90;;;;;;4919573;29;20287;-61
2022/03/15 07:41:39;;;;;;;13.57;11.13;;;5.40;99.90;;;;;;4920170;29;20239;-61
2022/03/15 07:44:08;;;;;;;15.63;11.70;;;5.30;99.90;;;;;;4923804;29;20259;-61
2022/03/15 07:46:38;;;;;;;20.80;15.47;;;5.40;99.90;;;;;;4924494;29;20259;-61
2022/03/15 07:49:06;;;;;;;21.20;15.10;;;5.60;99.90;;;;;;4918264;29;20316;-61
2022/03/15 07:51:35;;;;;;;18.57;14.07;;;5.70;99.90;;;;;;4925018;29;20315;-61
2022/03/15 07:54:03;;;;;;;17.03;12.40;;;5.70;99.90;;;;;;4923591;29;20261;-60
2022/03/15 07:56:31;;;;;;;16.57;12.37;;;5.70;99.90;;;;;;4924661;29;20283;-61
2022/03/15 07:58:59;;;;;;;15.70;12.03;;;5.70;99.90;;;;;;4930891;29;20755;-61
2022/03/15 08:01:27;;;;;;;13.73;11.43;;;5.90;99.90;;;;;;4925907;29;20270;-61
2022/03/15 08:03:59;;;;;;;14.87;11.67;;;5.90;99.90;;;;;;4923684;29;20708;-61
2022/03/15 08:06:29;;;;;;;15.17;11.70;;;6.00;99.90;;;;;;4920075;29;20647;-61
2022/03/15 08:08:58;;;;;;;13.03;10.47;;;6.00;99.90;;;;;;4917491;29;20288;-60
2022/03/15 08:11:28;;;;;;;15.83;11.27;;;6.00;99.90;;;;;;4926341;29;20255;-61
2022/03/15 08:13:58;;;;;;;14.83;11.50;;;6.10;99.90;;;;;;4917005;29;20592;-61
2022/03/15 08:16:27;;;;;;;13.73;10.40;;;6.20;99.90;;;;;;4919299;29;20327;-61
2022/03/15 08:18:56;;;;;;;17.23;12.07;;;6.20;99.90;;;;;;4915504;29;20319;-61
2022/03/15 08:21:26;;;;;;;17.33;11.53;;;6.30;99.90;;;;;;4916430;29;20739;-61
2022/03/15 08:23:54;;;;;;;15.97;11.90;;;6.40;99.90;;;;;;4923224;29;20225;-61
2022/03/15 08:26:22;;;;;;;14.77;11.53;;;6.60;99.90;;;;;;4921771;29;20719;-61
2022/03/15 08:28:52;;;;;;;14.37;11.57;;;6.70;99.90;;;;;;4923825;29;20236;-61
2022/03/15 08:31:21;;;;;;;11.97;10.10;;;6.70;99.90;;;;;;4916607;29;20252;-61
2022/03/15 08:33:51;;;;;;;16.73;10.23;;;6.70;99.90;;;;;;4916218;29;20244;-61
2022/03/15 08:36:19;;;;;;;16.30;11.03;;;6.80;99.90;;;;;;4916625;29;20236;-61
2022/03/15 08:38:50;;;;;;;15.00;11.10;;;6.80;99.90;;;;;;4916220;29;20268;-61
2022/03/15 08:41:19;;;;;;;17.53;11.97;;;6.90;99.90;;;;;;4916258;29;20271;-61
2022/03/15 08:43:47;;;;;;;16.00;11.60;;;7.00;99.90;;;;;;4916104;29;20596;-60
2022/03/15 08:46:15;;;;;;;16.60;11.30;;;7.00;99.90;;;;;;4916159;29;20312;-60
2022/03/15 08:48:43;;;;;;;15.63;11.87;;;7.20;99.90;;;;;;4915925;29;20247;-61
2022/03/15 08:51:12;;;;;;;17.33;11.93;;;7.30;99.90;;;;;;4916837;29;20705;-61
2022/03/15 08:53:40;;;;;;;15.90;12.27;;;7.30;99.90;;;;;;4916250;29;20712;-61
2022/03/15 08:56:10;;;;;;;16.67;11.23;;;7.30;99.90;;;;;;4916163;29;20266;-61
2022/03/15 08:58:38;;;;;;;15.03;10.50;;;7.50;99.90;;;;;;4925884;29;20231;-61
2022/03/15 09:01:06;;;;;;;18.53;12.23;;;7.60;99.90;;;;;;4935048;29;20236;-61
2022/03/15 09:03:55;;;;;;;16.17;11.63;;;7.70;99.90;;;;;;4915548;29;20776;-61
2022/03/15 09:06:24;;;;;;;19.27;12.03;;;7.70;99.90;;;;;;4915822;29;20252;-61
2022/03/15 09:08:52;;;;;;;19.00;13.47;;;7.80;99.90;;;;;;4915374;29;20251;-61
2022/03/15 09:11:21;;;;;;;19.20;14.17;;;7.90;99.90;;;;;;4915901;29;20232;-61
2022/03/15 09:13:50;;;;;;;18.73;15.13;;;8.00;99.90;;;;;;4915057;29;20256;-61
2022/03/15 09:16:20;;;;;;;19.13;14.27;;;8.10;99.90;;;;;;4915458;29;20236;-59
2022/03/15 09:18:48;;;;;;;18.43;12.80;;;8.20;99.90;;;;;;4926555;29;20314;-59
2022/03/15 09:21:18;;;;;;;17.13;11.90;;;8.20;99.90;;;;;;4915419;29;20256;-59
2022/03/15 09:23:46;;;;;;;18.47;11.37;;;8.20;99.90;;;;;;4921351;29;20673;-59
2022/03/15 09:26:14;;;;;;;19.23;11.57;;;8.30;99.90;;;;;;4919709;29;20235;-59
2022/03/15 09:28:44;;;;;;;17.30;11.53;;;8.20;99.90;;;;;;4923864;29;20259;-58
2022/03/15 09:31:12;;;;;;;16.50;10.83;;;8.30;99.90;;;;;;4915905;29;20241;-58
2022/03/15 09:33:41;;;;;;;14.67;9.67;;;8.30;99.90;;;;;;4915327;29;20243;-59
2022/03/15 09:36:09;;;;;;;17.23;11.20;;;8.40;99.90;;;;;;4912808;29;20229;-58
2022/03/15 09:38:37;;;;;;;16.93;9.33;;;8.50;99.90;;;;;;4915223;29;20228;-59
2022/03/15 09:41:07;;;;;;;17.83;11.37;;;8.60;99.90;;;;;;4914232;29;20236;-59
2022/03/15 09:43:37;;;;;;;16.23;10.57;;;8.80;99.90;;;;;;4914921;29;21194;-59
2022/03/15 09:46:08;;;;;;;17.60;10.70;;;8.70;99.90;;;;;;4915150;29;20366;-59
2022/03/15 09:48:56;;;;;;;16.30;10.23;;;8.70;99.90;;;;;;4920157;29;20328;-59
2022/03/15 09:51:27;;;;;;;18.27;10.77;;;8.80;99.90;;;;;;4926198;29;20681;-59
2022/03/15 09:53:58;;;;;;;19.57;11.33;;;8.80;99.90;;;;;;4926464;29;20264;-59
2022/03/15 09:56:26;;;;;;;19.37;10.50;;;8.80;99.90;;;;;;4926003;29;20291;-58
2022/03/15 09:58:55;;;;;;;22.40;11.90;;;8.80;99.90;;;;;;4927987;29;20247;-59
2022/03/15 10:01:25;;;;;;;17.70;10.90;;;8.90;99.90;;;;;;4922892;29;20321;-59
2022/03/15 10:03:53;;;;;;;17.50;10.87;;;9.00;99.90;;;;;;4919944;29;20248;-58
2022/03/15 10:06:23;;;;;;;16.83;10.70;;;8.90;99.90;;;;;;4920631;29;20236;-59
2022/03/15 10:08:51;;;;;;;17.83;10.97;;;8.90;99.90;;;;;;4932263;29;20724;-58
2022/03/15 10:11:20;;;;;;;16.87;10.23;;;9.10;99.90;;;;;;4925999;29;20657;-59
2022/03/15 10:13:48;;;;;;;15.60;11.07;;;10.00;99.90;;;;;;4926979;29;20260;-59
2022/03/15 10:16:17;;;;;;;17.73;11.87;;;9.90;99.90;;;;;;4925954;29;20232;-59
2022/03/15 10:18:57;;;;;;;17.60;11.43;;;9.70;99.90;;;;;;4918431;29;20336;-59
2022/03/15 10:21:26;;;;;;;19.70;12.27;;;9.60;99.90;;;;;;4913504;29;20232;-59
2022/03/15 10:23:55;;;;;;;21.13;11.77;;;9.50;99.90;;;;;;4915802;29;20234;-58
2022/03/15 10:26:24;;;;;;;19.03;12.33;;;9.40;99.90;;;;;;4912844;29;20237;-58
2022/03/15 10:28:54;;;;;;;21.33;12.87;;;9.50;99.90;;;;;;4915293;29;20240;-58
2022/03/15 10:31:23;;;;;;;18.77;12.43;;;9.50;99.90;;;;;;4912875;29;20724;-58
2022/03/15 10:33:53;;;;;;;25.83;13.87;;;9.70;99.90;;;;;;4913735;29;20601;-59
2022/03/15 10:36:23;;;;;;;22.10;13.53;;;9.80;99.90;;;;;;4911780;29;20245;-59
2022/03/15 10:38:53;;;;;;;21.43;12.80;;;9.80;99.90;;;;;;4914049;29;20238;-59
2022/03/15 10:41:21;;;;;;;20.50;12.83;;;10.00;99.90;;;;;;4914264;29;20229;-59
2022/03/15 10:43:54;;;;;;;20.70;13.13;;;10.00;99.90;;;;;;4913245;29;20325;-59
2022/03/15 10:46:24;;;;;;;20.30;12.97;;;10.20;99.90;;;;;;4913704;29;20234;-59
2022/03/15 10:49:00;;;;;;;21.17;13.27;;;10.20;99.90;;;;;;4912185;29;20292;-59
2022/03/15 10:51:29;;;;;;;20.97;12.43;;;10.20;99.90;;;;;;4914007;29;20235;-59
2022/03/15 10:54:02;;;;;;;17.57;12.73;;;10.30;99.90;;;;;;4913826;29;20601;-58
2022/03/15 10:56:31;;;;;;;18.27;13.07;;;10.40;99.90;;;;;;4913927;29;20728;-59
2022/03/15 10:59:01;;;;;;;25.03;13.97;;;10.40;99.90;;;;;;4912911;29;20576;-59
2022/03/15 11:01:30;;;;;;;20.63;14.13;;;10.50;99.90;;;;;;4914060;29;20262;-59
2022/03/15 11:04:02;;;;;;;25.63;13.40;;;10.60;99.90;;;;;;4913575;29;20244;-59
2022/03/15 11:06:38;;;;;;;21.80;13.73;;;10.60;99.90;;;;;;4917226;29;20778;-58
2022/03/15 11:09:24;;;;;;;25.60;14.80;;;10.60;99.90;;;;;;4913075;29;20246;-58
2022/03/15 11:11:57;;;;;;;23.70;15.30;;;10.70;99.90;;;;;;4915412;29;20298;-59
2022/03/15 11:14:36;;;;;;;24.10;13.83;;;10.70;99.90;;;;;;4918566;29;20278;-59
2022/03/15 11:17:08;;;;;;;22.93;14.30;;;10.90;99.90;;;;;;4917513;29;20737;-59
2022/03/15 11:19:41;;;;;;;21.33;13.43;;;11.00;99.90;;;;;;4914493;29;20592;-58
2022/03/15 11:22:12;;;;;;;23.67;14.50;;;11.20;99.90;;;;;;4914450;29;20238;-59
2022/03/15 11:24:47;;;;;;;24.73;15.67;;;11.30;99.90;;;;;;4917366;29;20656;-59
2022/03/15 11:27:17;;;;;;;23.17;15.03;;;11.40;99.90;;;;;;4920117;29;20246;-58
2022/03/15 11:29:46;;;;;;;20.83;14.63;;;11.40;99.90;;;;;;4924630;29;20291;-59
2022/03/15 11:32:15;;;;;;;21.33;14.23;;;11.50;99.90;;;;;;4917658;29;20262;-59
2022/03/15 11:34:43;;;;;;;25.67;16.33;;;11.70;99.90;;;;;;4918922;29;20271;-58
2022/03/15 11:37:14;;;;;;;25.77;16.27;;;11.60;99.90;;;;;;4917899;29;20243;-59
2022/03/15 11:39:43;;;;;;;25.67;16.23;;;11.50;99.90;;;;;;4929182;29;20250;-59
2022/03/15 11:42:12;;;;;;;25.67;15.60;;;11.50;99.90;;;;;;4917753;29;20241;-59
2022/03/15 11:44:52;;;;;;;24.10;16.13;;;11.50;99.90;;;;;;4936593;29;20658;-59
2022/03/15 11:47:36;;;;;;;25.53;16.93;;;11.60;99.90;;;;;;4922359;29;20708;-59
2022/03/15 11:50:15;;;;;;;26.37;19.77;;;11.70;99.90;;;;;;4912674;29;20271;-59
2022/03/15 11:53:00;;;;;;;27.13;18.40;;;11.70;99.90;;;;;;4916765;29;20654;-59
2022/03/15 11:55:34;;;;;;;28.53;19.43;;;11.80;99.90;;;;;;4915862;29;20715;-59
2022/03/15 11:58:05;;;;;;;28.77;21.50;;;11.80;99.90;;;;;;4916816;29;22220;-59
2022/03/15 12:00:38;;;;;;;27.60;20.70;;;11.80;99.90;;;;;;4915781;29;20619;-59
2022/03/15 12:03:07;;;;;;;29.70;20.30;;;11.90;99.90;;;;;;4926159;29;20726;-59
2022/03/15 12:05:44;;;;;;;26.97;19.80;;;12.00;99.90;;;;;;4917175;29;20236;-59
2022/03/15 12:08:18;;;;;;;29.37;19.43;;;12.00;99.90;;;;;;4916938;29;20643;-59
2022/03/15 12:10:52;;;;;;;27.10;20.03;;;12.10;99.90;;;;;;4922133;29;20233;-59
2022/03/15 12:13:34;;;;;;;27.37;19.77;;;12.10;99.90;;;;;;4926538;29;20282;-59
2022/03/15 12:16:13;;;;;;;33.67;21.63;;;12.10;99.90;;;;;;4914843;29;20247;-59
2022/03/15 12:18:44;;;;;;;29.03;21.00;;;12.20;99.90;;;;;;4919547;29;20599;-59
2022/03/15 12:21:12;;;;;;;28.63;20.73;;;12.20;99.90;;;;;;4920803;29;20639;-59
2022/03/15 12:23:43;;;;;;;29.60;20.30;;;12.40;99.90;;;;;;4929857;29;20243;-59
2022/03/15 12:26:21;;;;;;;29.03;20.73;;;12.40;99.90;;;;;;4916152;29;20239;-59
2022/03/15 12:28:58;;;;;;;32.20;21.73;;;12.40;99.90;;;;;;4922392;29;20265;-59
2022/03/15 12:31:38;;;;;;;29.30;20.53;;;12.40;99.90;;;;;;4921823;29;20238;-59
2022/03/15 12:34:09;;;;;;;30.67;20.87;;;12.30;99.90;;;;;;4917152;29;20600;-59
2022/03/15 12:36:39;;;;;;;30.57;20.67;;;12.30;99.90;;;;;;4916393;29;20236;-59
2022/03/15 12:39:18;;;;;;;30.90;22.70;;;12.30;99.90;;;;;;4915869;29;20240;-59
2022/03/15 12:41:47;;;;;;;32.53;22.00;;;12.30;99.90;;;;;;4917111;29;20322;-58
2022/03/15 12:44:22;;;;;;;31.73;23.40;;;12.40;99.90;;;;;;4917495;29;20247;-59
2022/03/15 12:46:50;;;;;;;32.63;22.27;;;12.40;99.90;;;;;;4920850;29;20609;-59
2022/03/15 12:49:19;;;;;;;34.80;23.87;;;12.40;99.90;;;;;;4926463;29;20235;-58